createdAt,value
2023-02-03T00:05:56.011Z,63.63
2023-02-03T00:11:00.269Z,63.61
2023-02-03T00:36:53.987Z,63.75
2023-02-03T00:41:57.355Z,63.98
2023-02-03T00:47:00.839Z,64.30
2023-02-03T00:52:04.756Z,64.62
2023-02-03T01:04:16.415Z,65.08
2023-02-03T01:09:19.938Z,65.11
2023-02-03T01:14:23.457Z,64.86
2023-02-03T01:19:27.386Z,65.01
2023-02-03T01:33:00.968Z,65.31
2023-02-03T01:38:04.602Z,65.07
2023-02-03T01:44:01.624Z,64.62
2023-02-03T01:49:14.613Z,64.79
2023-02-03T01:54:25.128Z,64.81
2023-02-03T01:59:31.913Z,65.22
2023-02-03T02:04:57.057Z,65.38
2023-02-03T02:20:15.448Z,64.95
2023-02-03T02:36:10.135Z,64.78
2023-02-03T02:41:41.675Z,65.12
2023-02-03T02:46:50.964Z,64.85
2023-02-03T03:00:41.256Z,65.11
2023-02-03T03:05:54.387Z,65.46
2023-02-03T03:11:44.179Z,65.17
2023-02-03T03:16:57.016Z,65.21
2023-02-03T03:22:07.699Z,65.51
2023-02-03T03:28:30.894Z,65.36
2023-02-03T03:33:34.362Z,65.56
2023-02-03T03:39:27.998Z,65.55
2023-02-03T03:44:48.559Z,65.32
2023-02-03T03:49:55.329Z,64.82
2023-02-03T03:56:18.967Z,64.12
2023-02-03T04:01:24.451Z,63.48
2023-02-03T04:13:36.452Z,63.33
2023-02-03T04:18:40.100Z,62.48
2023-02-03T04:23:43.628Z,62.77
2023-02-03T04:43:28.539Z,63.81
2023-02-03T04:49:11.867Z,63.72
2023-02-03T04:54:15.671Z,63.57
2023-02-03T04:59:19.267Z,63.59
2023-02-03T05:04:23.230Z,63.95
2023-02-03T05:09:29.590Z,64.52
2023-02-03T05:23:11.039Z,63.98
2023-02-03T05:28:40.470Z,63.78
2023-02-03T05:34:21.890Z,63.66
2023-02-03T05:39:25.497Z,63.79
2023-02-03T05:44:29.645Z,64.16
2023-02-03T05:49:33.160Z,64.33
2023-02-03T05:54:36.969Z,64.65
2023-02-03T05:59:41.853Z,64.66
2023-02-03T06:04:45.675Z,64.71
2023-02-03T06:18:18.831Z,66.23
2023-02-03T06:44:36.580Z,66.48
2023-02-03T06:49:40.056Z,66.70
2023-02-03T07:10:53.244Z,64.78
2023-02-03T07:15:57.406Z,64.12
2023-02-03T07:21:01.161Z,63.01
2023-02-03T07:26:07.761Z,64.05
2023-02-03T07:32:07.832Z,63.36
2023-02-03T07:37:11.514Z,62.02
2023-02-03T07:42:15.197Z,61.90
2023-02-03T07:54:39.508Z,62.30
2023-02-03T07:59:43.239Z,61.95
2023-02-03T08:13:50.291Z,60.17
2023-02-03T08:18:53.919Z,59.38
2023-02-03T08:23:57.768Z,64.99
2023-02-03T08:29:51.827Z,64.12
2023-02-03T08:49:12.966Z,64.90
2023-02-03T09:20:24.965Z,67.17
2023-02-03T09:26:20.660Z,68.04
2023-02-03T09:31:24.330Z,68.32
2023-02-03T09:36:28.625Z,68.45
2023-02-03T09:42:04.446Z,68.02
2023-02-03T09:47:19.255Z,67.92
2023-02-03T09:52:41.088Z,68.68
2023-02-03T10:13:09.203Z,69.92
2023-02-03T10:18:36.867Z,69.50
2023-02-03T10:23:55.353Z,69.37
2023-02-03T10:29:13.798Z,69.38
2023-02-03T10:34:20.890Z,69.37
2023-02-03T10:46:16.059Z,68.83
2023-02-03T10:52:05.268Z,68.84
2023-02-03T11:06:05.476Z,69.28
2023-02-03T11:11:32.139Z,69.13
2023-02-03T11:16:39.592Z,68.70
2023-02-03T11:21:49.836Z,68.50
2023-02-03T11:27:08.511Z,68.84
2023-02-03T11:32:19.803Z,69.30
2023-02-03T11:44:34.564Z,69.83
2023-02-03T11:50:36.425Z,69.99
2023-02-03T11:56:12.002Z,70.60
2023-02-03T12:01:49.804Z,71.53
2023-02-03T12:07:22.314Z,71.66
2023-02-03T12:13:06.480Z,72.42
2023-02-03T12:18:39.607Z,72.51
2023-02-03T12:24:24.705Z,73.08
2023-02-03T12:30:03.312Z,72.84
2023-02-03T12:35:23.336Z,73.12
2023-02-03T12:40:53.062Z,73.49
2023-02-03T12:46:22.745Z,73.92
2023-02-03T12:52:04.750Z,73.84
2023-02-03T12:57:37.262Z,74.62
2023-02-03T13:03:07.896Z,74.58
2023-02-03T13:08:39.709Z,74.69
2023-02-03T13:13:59.153Z,74.84
2023-02-03T13:19:17.892Z,74.57
2023-02-03T13:24:28.547Z,74.21
2023-02-03T13:29:54.589Z,74.51
2023-02-03T13:35:54.086Z,75.28
2023-02-03T13:41:29.297Z,74.47
2023-02-03T13:46:53.315Z,74.42
2023-02-03T13:51:57.803Z,74.72
2023-02-03T13:57:52.297Z,74.99
2023-02-03T14:02:57.223Z,74.63
2023-02-03T14:09:18.843Z,75.00
2023-02-03T14:29:02.359Z,74.16
2023-02-03T14:34:46.237Z,73.72
2023-02-03T14:40:49.767Z,73.69
2023-02-03T14:46:33.163Z,73.78
2023-02-03T14:52:15.203Z,74.36
2023-02-03T15:04:50.860Z,75.66
2023-02-03T15:10:55.103Z,75.40
2023-02-03T15:23:59.749Z,76.21
2023-02-03T15:29:41.513Z,76.30
2023-02-03T15:34:49.448Z,75.90
2023-02-03T15:47:05.547Z,75.26
2023-02-03T15:52:25.098Z,74.76
2023-02-03T15:57:35.076Z,74.46
2023-02-03T16:02:47.603Z,74.43
2023-02-03T16:07:52.339Z,74.24
2023-02-03T16:13:23.606Z,73.85
2023-02-03T16:18:27.425Z,73.60
2023-02-03T16:23:31.251Z,73.67
2023-02-03T16:29:56.549Z,73.78
2023-02-03T16:35:19.090Z,73.67
2023-02-03T16:40:43.535Z,73.56
2023-02-03T16:46:14.902Z,73.62
2023-02-03T16:51:44.375Z,73.83
2023-02-03T16:56:56.639Z,73.78
2023-02-03T17:02:05.497Z,73.72
2023-02-03T17:07:09.544Z,72.98
2023-02-03T17:12:13.477Z,72.60
2023-02-03T17:17:17.319Z,72.86
2023-02-03T17:22:21.448Z,73.02
2023-02-03T17:27:25.389Z,72.83
2023-02-03T17:32:29.309Z,72.95
2023-02-03T17:38:02.059Z,70.98
2023-02-03T17:54:09.191Z,66.77
2023-02-03T17:59:12.968Z,66.93
2023-02-03T18:04:16.750Z,66.93
2023-02-03T18:09:24.206Z,68.09
2023-02-03T18:14:47.352Z,66.60
2023-02-03T18:19:56.466Z,62.29
2023-02-03T18:25:58.052Z,58.48
2023-02-03T18:31:56.926Z,65.26
2023-02-03T18:38:23.939Z,61.57
2023-02-03T18:44:50.145Z,61.89
2023-02-03T18:58:24.086Z,59.67
2023-02-03T19:10:46.347Z,59.88
2023-02-03T19:15:53.269Z,60.42
2023-02-03T19:20:58.277Z,65.31
2023-02-03T19:26:06.068Z,65.51
2023-02-03T19:38:20.573Z,66.45
2023-02-03T19:43:28.043Z,66.60
2023-02-03T19:48:31.846Z,66.39
2023-02-03T19:53:36.801Z,66.46
2023-02-03T19:58:40.853Z,66.55
2023-02-03T20:03:48.905Z,66.93
2023-02-03T20:08:59.971Z,66.93
2023-02-03T20:14:05.955Z,67.16
2023-02-03T20:19:10.971Z,67.52
2023-02-03T20:24:15.091Z,67.82
2023-02-03T20:29:37.795Z,67.88
2023-02-03T20:34:41.809Z,68.51
2023-02-03T20:39:46.438Z,68.48
2023-02-03T20:45:46.493Z,68.50
2023-02-03T20:50:54.097Z,68.59
2023-02-03T20:56:02.423Z,68.39
2023-02-03T21:02:23.657Z,68.46
2023-02-03T21:07:32.833Z,68.38
2023-02-03T21:12:36.652Z,68.22
2023-02-03T21:17:40.421Z,67.98
2023-02-03T21:22:44.419Z,68.35
2023-02-03T21:27:48.621Z,68.22
2023-02-03T21:32:52.370Z,68.27
2023-02-03T21:38:04.762Z,68.11
2023-02-03T21:43:26.646Z,68.42
2023-02-03T21:48:41.076Z,68.44
2023-02-03T21:53:55.181Z,68.29
2023-02-03T21:59:00.239Z,68.34
2023-02-03T22:04:06.965Z,68.61
2023-02-03T22:09:23.229Z,68.52
2023-02-03T22:29:44.142Z,68.10
2023-02-03T22:36:11.985Z,67.73
2023-02-03T22:41:58.376Z,68.05
2023-02-03T22:47:55.201Z,67.96
2023-02-03T22:53:07.914Z,68.20
2023-02-03T22:58:14.728Z,68.07
2023-02-03T23:03:21.839Z,68.26
2023-02-03T23:16:40.254Z,67.82
2023-02-03T23:22:19.556Z,67.36
2023-02-03T23:28:39.609Z,67.44
2023-02-03T23:34:06.404Z,67.33
2023-02-03T23:39:10.196Z,67.04
2023-02-03T23:44:14.061Z,66.90
2023-02-03T23:50:57.474Z,67.02
2023-02-03T23:56:01.540Z,66.78
